Date,TemperatureHighF,TemperatureAvgF,TemperatureLowF,DewpointHighF,DewpointAvgF,DewpointLowF,HumidityHigh,HumidityAvg,HumidityLow,PressureMaxIn,PressureMinIn,WindSpeedMaxMPH,WindSpeedAvgMPH,GustSpeedMaxMPH,PrecipitationSumIn
2014-1-1,61.6,47.8,33.9,53.0,42.7,32.0,93,83,62,30.31,30.04,6,1,11,0.10
2014-1-2,56.7,44.5,26.8,55.0,34.8,23.0,94,71,38,30.42,30.01,9,2,14,0.00
2014-1-3,46.9,32.3,24.1,26.0,22.3,19.0,89,70,34,30.50,30.26,6,1,8,0.00
2014-1-4,60.9,44.7,22.3,48.0,36.0,19.0,88,73,55,30.26,29.95,11,3,18,0.00
2014-1-5,60.9,46.6,27.8,58.0,40.6,20.0,91,80,70,30.35,29.85,14,2,19,0.19
2014-1-6,31.8,25.0,18.3,19.0,12.3,6.0,81,61,34,30.66,30.36,9,2,14,0.00
2014-1-7,39.3,25.0,12.7,18.0,11.6,6.0,88,61,28,30.69,30.50,6,1,9,0.00
2014-1-8,43.7,33.4,20.5,36.0,22.1,16.0,84,65,46,30.49,30.29,7,1,11,0.02
2014-1-9,63.0,48.8,38.9,53.0,43.1,34.0,90,81,65,30.31,30.14,7,1,12,0.01
2014-1-10,65.5,58.8,51.5,64.0,56.0,48.0,94,90,84,30.14,29.78,10,2,19,0.26
2014-1-11,67.1,55.2,34.4,64.0,41.7,-99.9,94,70,31,30.10,29.79,5,-10,14,0.01
2014-1-12,70.8,51.1,30.1,46.0,35.0,28.0,94,61,27,30.16,29.97,11,2,14,0.00
2014-1-13,68.1,55.6,37.4,62.0,48.6,33.0,94,79,43,30.07,29.82,6,1,13,0.65
2014-1-14,68.4,45.5,29.1,43.0,32.6,27.0,93,68,23,30.16,30.03,6,1,9,0.00
2014-1-15,53.7,41.4,27.2,40.0,27.1,19.0,88,62,27,30.34,30.16,5,1,11,0.01
2014-1-16,64.9,43.7,26.2,38.0,31.1,23.0,88,66,32,30.19,30.01,11,2,18,0.00
2014-1-17,54.9,39.5,25.2,36.0,24.5,15.0,89,62,21,30.29,30.11,8,1,18,0.00
2014-1-18,64.6,43.4,22.6,43.0,27.6,19.0,88,61,25,30.28,30.07,11,2,18,0.00
2014-1-19,62.6,45.5,30.4,45.0,32.2,24.0,92,66,24,30.27,30.08,5,1,10,0.00
2014-1-20,71.5,49.2,28.2,53.0,40.4,25.0,88,74,48,30.12,29.90,7,1,12,0.00
2014-1-21,57.4,45.2,26.9,48.0,24.7,11.0,91,50,19,30.26,29.98,9,1,15,0.00
2014-1-22,57.3,39.3,22.2,36.0,24.5,17.0,85,60,28,30.26,30.12,5,1,8,0.00
2014-1-23,43.5,35.1,24.4,34.0,28.9,21.0,89,79,50,30.71,30.17,8,2,14,0.11
2014-1-24,32.1,25.5,18.7,21.0,15.7,11.0,88,68,43,30.71,30.35,7,1,9,0.06
2014-1-25,56.0,34.8,18.6,36.0,25.7,15.0,89,72,43,30.34,30.03,9,2,11,0.09
2014-2-6,36.0,31.9,27.3,29.0,26.0,23.0,85,79,72,30.52,30.38,8,2,12,0.00
2014-2-7,41.2,33.1,27.7,33.0,27.8,23.0,91,81,64,30.42,30.26,7,1,10,0.15
2014-2-8,52.4,40.6,33.8,44.0,37.1,32.0,93,87,72,30.28,30.12,4,0,7,0.00
2014-2-9,61.4,49.6,36.5,53.0,46.2,34.0,94,88,72,30.18,30.02,6,0,7,0.01
2014-2-10,46.1,37.9,31.7,43.0,36.1,30.0,93,93,90,30.21,30.09,10,2,12,0.64
2014-2-11,33.1,32.0,30.8,31.0,30.1,29.0,93,93,92,30.27,30.08,6,1,13,0.31
2014-2-12,33.6,32.0,30.9,32.0,30.3,29.0,94,93,93,30.15,30.02,0,0,0,0.04
2014-2-13,57.0,40.8,25.0,43.0,34.1,23.0,94,79,50,30.11,29.96,5,0,9,0.00
2014-2-14,70.0,51.2,31.7,56.0,43.6,30.0,94,77,51,30.02,29.78,12,2,23,0.01
2014-2-15,62.6,46.3,31.5,38.0,32.8,28.0,88,63,29,30.25,30.02,6,1,9,0.00
2014-2-16,72.8,55.0,34.0,58.0,47.4,31.0,93,77,50,30.15,30.02,7,1,11,0.00
2014-2-17,75.7,65.1,57.1,64.0,59.4,54.0,91,82,67,30.10,30.01,12,2,13,0.00
2014-2-18,74.0,66.6,57.0,66.0,62.0,55.0,95,85,69,30.10,29.96,8,1,18,0.00
2014-2-19,79.4,67.9,57.9,64.0,61.1,55.0,94,80,53,30.02,29.83,9,2,14,0.00
2014-2-20,79.0,69.6,54.4,65.0,60.8,39.0,89,74,52,30.06,29.77,15,3,26,0.03
2014-2-21,67.8,49.5,32.4,43.0,31.1,18.0,91,58,17,30.17,30.06,6,1,10,0.00
2014-2-22,71.1,50.5,33.9,44.0,35.5,30.0,92,62,26,30.13,29.95,9,1,13,0.00
2014-2-23,71.0,61.0,46.6,64.0,54.8,42.0,93,80,73,30.04,29.93,4,0,8,0.00
2014-2-24,63.7,56.4,48.9,54.0,46.5,41.0,89,70,59,30.17,30.04,6,1,11,0.00
2014-2-25,55.7,52.5,50.1,49.0,46.6,44.0,92,80,73,30.13,29.95,6,1,9,0.32
2014-2-26,49.9,40.2,29.7,48.0,34.5,26.0,93,81,59,30.18,29.95,7,2,12,0.12
2014-2-27,55.3,37.6,22.4,34.0,26.5,20.0,92,70,29,30.19,30.01,5,0,8,0.00
2014-2-28,57.5,44.4,29.9,53.0,38.3,27.0,92,80,62,30.03,29.89,12,2,23,0.00
2014-3-1,78.3,66.0,56.9,66.0,60.0,53.0,90,81,62,30.09,29.97,11,2,19,0.00
2014-3-2,76.4,64.6,39.4,67.0,60.2,37.0,92,86,71,30.08,29.86,9,3,20,0.24
2014-3-3,39.4,33.5,28.0,37.0,30.1,23.0,92,87,79,30.31,30.05,11,2,14,0.03
2014-3-4,36.9,30.7,25.5,28.0,24.8,21.0,84,79,68,30.30,30.12,5,1,10,0.01
2014-3-5,48.5,40.6,32.9,44.0,36.9,28.0,92,86,76,30.14,30.03,4,0,8,0.21
2014-3-6,44.0,40.9,33.0,42.0,39.1,31.0,94,93,90,30.12,30.05,6,0,9,0.42
2014-3-7,58.7,45.3,34.7,49.0,41.5,33.0,94,87,68,30.14,29.98,4,0,11,0.00
2014-3-8,67.2,56.0,45.0,56.0,50.7,43.0,94,83,63,30.18,30.02,6,1,9,0.00
2014-3-9,61.3,56.4,53.3,58.0,54.0,51.0,94,92,83,30.27,30.16,1,0,5,0.02
2014-3-11,69.6,63.0,58.8,63.0,57.9,-99.9,93,87,78,29.81,0.00,5,-18,10,0.08
2014-3-12,66.6,56.6,37.2,57.0,43.8,28.0,94,67,29,30.21,29.69,11,2,14,0.01
2014-3-13,67.9,49.2,28.8,40.0,32.1,26.0,93,59,22,30.34,30.18,6,1,10,0.00
2014-3-14,67.9,52.8,33.3,54.0,44.9,31.0,93,76,58,30.21,30.05,8,2,13,0.00
2014-3-15,73.5,62.9,57.2,62.0,57.8,53.0,94,84,63,30.07,29.70,8,1,15,1.35
2014-3-16,64.5,57.5,43.9,61.0,52.4,-99.9,94,86,70,29.91,29.66,7,-9,11,0.01
2014-3-17,48.3,41.3,35.3,40.0,35.5,32.0,89,80,69,29.93,29.83,7,1,10,0.00
2014-3-18,70.5,50.5,30.4,53.0,42.0,28.0,93,75,46,29.90,29.77,12,3,20,0.00
2014-3-19,75.4,62.2,50.3,59.0,50.4,37.0,92,70,25,30.13,29.89,7,1,12,0.00
2014-3-20,74.0,55.2,38.0,48.0,41.5,35.0,93,65,30,30.21,30.05,5,1,9,0.00
2014-3-21,78.2,59.9,40.4,56.0,48.8,38.0,93,70,44,30.07,29.91,9,2,20,0.00
2014-3-22,79.3,68.5,58.5,64.0,60.3,55.0,92,76,58,30.05,29.93,6,0,9,0.00
2014-3-23,65.0,55.8,47.0,61.0,49.2,41.0,92,79,58,30.23,29.96,12,3,14,0.02
2014-3-24,67.3,52.2,42.8,44.0,39.7,36.0,86,65,38,30.23,30.00,6,1,10,0.00
2014-3-25,66.2,49.2,33.8,41.0,34.0,28.0,92,63,25,30.31,30.11,7,1,11,0.00
2014-3-26,64.1,49.5,33.2,38.0,33.2,29.0,88,58,28,30.34,30.11,12,2,15,0.00
2014-3-27,65.9,59.3,51.6,62.0,53.2,37.0,94,80,58,30.11,29.80,13,4,21,2.63
2014-3-28,84.5,68.6,61.3,73.0,56.3,-99.9,95,80,61,29.93,29.71,8,-41,21,0.19
2014-3-29,74.5,62.4,46.9,60.0,51.6,42.0,94,72,34,30.22,29.90,10,2,14,0.00
2014-3-30,73.3,55.8,39.0,51.0,44.0,37.0,93,69,36,30.28,30.09,6,1,10,0.00
2014-3-31,79.7,60.4,40.0,57.0,48.2,38.0,94,68,38,30.11,29.96,12,2,20,0.00
2014-4-1,76.7,68.2,61.0,66.0,62.0,57.0,90,81,65,30.07,29.96,6,1,13,0.00
2014-4-2,78.7,71.8,67.3,69.0,66.1,63.0,89,82,71,30.00,29.86,8,2,18,0.00
2014-4-3,82.8,74.7,69.7,70.0,68.6,66.0,93,82,59,29.91,29.80,16,3,26,0.02
2014-4-4,74.3,66.2,53.6,70.0,57.0,46.0,93,75,41,30.06,29.77,7,1,19,1.01
2014-4-5,68.8,57.3,49.6,48.0,45.1,43.0,86,66,44,30.12,29.97,9,1,10,0.01
2014-4-6,57.7,53.8,49.5,56.0,50.9,44.0,94,90,69,30.00,29.62,9,1,18,1.62
2014-4-7,59.5,53.9,48.0,53.0,50.2,45.0,94,87,75,29.95,29.65,5,0,9,0.02
2014-4-8,68.4,51.5,41.6,55.0,45.2,-99.9,94,82,44,30.13,29.87,8,-10,15,0.06
2014-4-9,72.5,53.6,34.6,51.0,40.4,33.0,94,67,29,30.28,30.13,5,0,8,0.01
2014-4-10,79.2,63.6,48.3,57.0,51.3,44.0,91,67,40,30.18,30.04,11,2,20,0.00
2014-4-11,79.2,66.0,54.8,60.0,56.3,51.0,91,73,50,30.15,30.01,18,1,18,0.00
2014-4-12,81.1,68.6,52.9,63.0,58.6,50.0,93,73,49,30.10,29.93,11,2,16,0.00
2014-4-13,78.6,71.5,66.8,68.0,65.1,62.0,92,81,65,29.95,29.76,8,2,21,0.38
2014-4-14,80.0,63.1,44.0,72.0,57.4,-99.9,94,88,69,30.07,29.72,7,-9,21,0.79
2014-4-15,59.1,47.9,37.4,41.0,35.6,31.0,88,66,35,30.26,30.08,8,1,15,0.00
2014-4-16,63.9,48.7,34.4,45.0,34.0,-99.9,91,66,34,30.25,30.06,6,-10,12,0.00
2014-4-17,63.9,54.1,42.3,55.0,48.3,40.0,93,81,64,30.21,30.11,5,0,9,0.00
2014-4-18,73.1,60.4,51.9,63.0,53.0,-99.9,94,83,64,30.19,30.09,6,-10,9,0.08
2014-4-19,78.6,64.1,52.1,62.0,54.8,50.0,94,75,44,30.21,30.09,4,0,6,0.00
2014-4-20,82.4,66.3,49.8,62.0,55.1,48.0,94,71,39,30.19,30.04,5,0,10,0.00
2014-4-21,82.3,68.8,55.7,63.0,57.4,53.0,92,70,44,30.09,29.93,5,0,13,0.00
2014-4-22,79.4,69.4,61.0,66.0,62.5,58.0,93,80,55,29.99,29.89,3,0,8,0.04
2014-4-23,83.4,68.9,55.2,66.0,58.1,53.0,94,72,42,29.99,29.85,3,0,11,0.00
2014-4-24,81.6,70.5,58.3,69.0,63.8,55.0,93,80,65,29.92,29.80,7,1,15,0.00
2014-4-25,81.4,68.9,55.5,66.0,55.1,45.0,93,67,28,30.03,29.88,4,0,6,0.00
2014-4-26,85.6,70.1,51.4,70.0,61.7,48.0,91,76,57,29.94,29.80,7,0,13,0.00
2014-4-27,89.1,78.4,72.6,73.0,69.8,68.0,86,75,51,29.82,29.57,16,3,23,0.00
2014-4-28,85.1,75.0,58.3,74.0,68.2,54.0,87,79,65,29.67,29.54,8,1,15,0.05
2014-4-29,81.9,66.4,53.0,72.0,58.9,50.0,94,79,53,29.86,29.62,2,0,9,0.00
2014-4-30,67.1,56.5,45.9,50.0,46.0,42.0,89,70,48,30.11,29.87,5,0,9,0.00
2014-5-1,71.3,55.5,39.6,53.0,43.0,37.0,93,68,33,30.14,30.00,5,0,8,0.00
2014-5-2,76.8,61.1,44.5,56.0,47.2,41.0,93,66,29,30.06,29.93,3,0,8,0.00
2014-5-3,84.1,65.1,46.7,58.0,49.9,44.0,92,64,25,30.07,29.99,6,0,7,0.00
2014-5-4,87.6,70.0,53.0,60.0,53.8,50.0,92,61,31,30.12,29.99,5,0,10,0.00
2014-5-5,84.1,69.2,50.0,64.0,57.2,46.0,92,68,49,30.05,29.89,8,1,15,0.00
2014-5-6,82.6,70.6,56.6,64.0,59.4,53.0,92,70,51,29.96,29.84,8,1,15,0.00
2014-5-7,85.1,73.5,63.3,69.0,64.7,58.0,92,75,54,29.99,29.89,7,1,16,0.00
2014-5-8,82.3,76.4,71.5,70.0,68.0,66.0,88,76,63,30.00,29.91,7,1,12,0.00
2014-5-9,78.2,71.3,65.4,73.0,68.1,63.0,94,89,80,30.03,29.87,8,0,13,0.25
2014-5-10,84.0,74.4,66.1,73.0,68.3,63.0,91,82,68,29.98,29.86,7,0,12,0.01
2014-5-11,86.1,77.1,72.3,74.0,71.1,68.0,92,82,62,29.96,29.85,6,1,15,0.01
2014-5-12,85.9,76.8,72.4,74.0,71.9,68.0,93,85,64,30.00,29.87,9,1,18,0.13
2014-5-13,78.4,71.8,65.8,73.0,69.4,64.0,94,92,80,30.08,29.95,1,0,8,0.81
2014-5-14,65.4,59.3,50.4,64.0,56.8,48.0,95,91,80,30.20,30.01,6,0,11,0.64
2014-5-15,70.9,57.1,41.8,55.0,47.9,40.0,94,74,41,30.27,30.12,4,0,9,0.01
2014-5-16,79.3,65.0,50.5,62.0,55.6,48.0,93,74,47,30.19,30.01,5,0,11,0.00
2014-5-17,83.1,70.9,59.2,65.0,59.3,55.0,90,69,40,30.12,30.01,7,1,19,0.00
2014-5-18,82.0,69.8,58.1,67.0,61.4,55.0,93,76,51,30.16,30.06,5,0,9,0.00
2014-5-19,83.0,71.3,59.5,66.0,62.1,57.0,93,74,52,30.14,30.04,8,0,13,0.00
2014-5-20,85.1,73.5,61.5,70.0,65.1,59.0,93,76,54,30.14,30.05,10,1,14,0.00
2014-5-21,86.5,74.9,64.3,70.0,65.8,62.0,93,75,51,30.16,30.06,6,0,13,0.00
2014-5-22,86.2,72.9,59.5,70.0,63.8,57.0,93,75,50,30.17,30.04,2,0,8,0.00
2014-5-23,85.6,73.4,61.5,70.0,65.1,59.0,93,77,50,30.14,30.02,2,0,9,0.00
2014-5-24,84.2,73.7,65.1,69.0,65.8,62.0,93,78,50,30.10,29.98,4,0,9,0.00
2014-5-25,86.0,75.0,63.8,71.0,66.2,61.0,93,76,52,30.09,29.97,6,0,9,0.00
2014-5-26,83.3,74.6,64.0,72.0,67.5,61.0,93,79,62,30.10,30.01,5,0,8,0.00
2014-5-27,78.1,73.4,69.8,72.0,70.1,67.0,93,89,82,30.03,29.88,6,0,11,0.41
2014-5-28,73.6,70.3,67.3,72.0,68.5,66.0,95,94,93,29.92,29.79,7,0,7,1.36
2014-5-29,80.3,72.8,67.3,72.0,68.7,65.0,95,87,73,29.86,29.77,1,0,6,0.00
2014-5-30,79.0,72.0,65.3,75.0,69.6,63.0,95,92,80,29.89,29.80,2,0,10,0.34
2014-5-31,86.5,76.6,70.9,75.0,72.0,69.0,95,86,64,29.95,29.85,2,0,8,0.01
2014-6-1,85.1,75.4,70.5,75.0,71.4,68.0,94,87,69,30.00,29.93,4,0,11,0.16
2014-6-2,86.3,77.3,71.2,75.0,71.8,69.0,95,84,64,30.05,29.95,6,0,8,0.01
2014-6-3,85.3,77.3,69.4,75.0,71.6,67.0,94,83,67,30.05,29.93,3,0,7,0.00
2014-6-4,86.1,78.4,72.5,76.0,72.9,70.0,94,84,68,29.95,29.84,6,0,11,0.00
2014-6-5,86.6,78.5,69.6,76.0,72.9,68.0,94,83,64,29.91,29.83,4,0,10,0.00
2014-6-6,88.8,79.5,70.2,78.0,74.0,68.0,94,84,66,29.98,29.87,5,0,10,0.00
2014-6-7,89.6,80.4,70.5,77.0,73.8,68.0,94,81,62,29.98,29.87,4,0,9,0.00
2014-6-8,88.2,80.2,72.4,77.0,74.1,70.0,94,82,64,29.97,29.80,4,0,11,0.00
2014-6-9,87.2,75.0,67.9,76.0,71.3,66.0,94,88,67,29.89,29.77,10,1,15,0.30
2014-6-10,83.5,73.0,66.4,73.0,67.3,63.0,95,83,54,29.83,29.75,8,1,16,1.29
2014-6-11,85.9,74.1,64.2,70.0,66.3,62.0,94,78,53,29.89,29.81,4,0,9,0.00
2014-6-12,84.5,75.3,64.5,77.0,71.6,62.0,94,88,76,29.96,29.82,1,0,7,0.27
2014-6-13,85.9,77.0,70.5,76.0,72.2,68.0,95,86,68,29.97,29.88,1,0,7,0.09
2014-6-14,87.0,77.4,66.6,77.0,70.8,65.0,94,81,62,29.99,29.90,7,0,9,0.00
2014-6-15,88.3,79.2,71.0,75.0,72.2,68.0,94,80,60,30.01,29.91,5,0,12,0.00
2014-6-16,88.5,79.0,73.5,77.0,73.4,70.0,94,83,64,30.12,30.00,6,0,14,0.11
2014-6-17,89.6,80.3,73.1,77.0,73.8,71.0,95,82,61,30.10,30.00,7,0,9,0.01
2014-6-21,87.4,43.7,87.4,75.0,-12.5,-99.9,67,34,67,29.93,29.93,0,-500,4,0.00
2014-6-24,77.4,75.1,73.1,74.0,72.0,70.0,91,90,89,30.05,30.00,0,0,2,0.00
2014-6-25,85.7,76.1,71.8,76.0,72.1,69.0,94,87,69,30.09,30.00,5,0,10,0.20
2014-6-26,83.3,73.4,70.2,76.0,71.1,69.0,95,92,74,30.09,29.97,5,0,11,0.25
2014-6-27,77.7,72.6,70.1,73.0,70.4,68.0,95,92,85,30.05,29.96,3,0,10,0.08
2014-6-28,86.1,76.1,70.0,80.0,71.5,-99.9,95,89,77,30.05,29.97,8,-20,12,0.02
2014-6-29,90.3,82.8,77.6,79.0,77.1,76.0,93,83,66,30.11,30.01,6,1,12,0.00
2014-6-30,91.2,82.6,76.5,78.0,75.9,74.0,94,81,61,30.06,29.95,8,1,11,0.00
2014-7-1,91.3,82.0,73.1,79.0,75.6,71.0,94,82,60,30.01,29.91,5,0,7,0.00
2014-7-2,90.0,81.1,72.8,81.0,75.7,71.0,94,84,66,30.02,29.97,1,0,7,0.01
2014-7-3,86.5,79.9,75.2,77.0,75.3,73.0,93,86,71,30.14,30.04,0,0,4,0.00
2014-7-4,85.0,75.6,67.2,73.0,67.4,64.0,93,77,54,30.21,30.12,2,0,7,0.00
2014-7-5,86.1,74.2,60.5,72.0,66.3,58.0,94,78,55,30.20,30.07,0,0,5,0.00
2014-7-6,90.0,77.6,64.7,77.0,70.3,63.0,94,79,54,30.09,29.97,4,0,8,0.00
2014-7-7,89.2,79.9,69.4,76.0,72.3,67.0,94,79,59,30.05,29.95,5,0,12,0.00
2014-7-8,90.9,80.8,71.2,78.0,74.2,69.0,94,81,61,30.07,29.96,3,0,9,0.00
2014-7-9,90.0,81.1,75.6,77.0,74.5,72.0,94,81,58,30.09,29.96,5,0,8,0.00
2014-7-10,90.5,80.8,72.2,77.0,73.8,70.0,94,80,61,30.09,29.97,2,0,5,0.00
2014-7-11,92.0,80.9,71.9,77.0,73.8,70.0,94,80,55,30.14,30.05,2,0,7,0.00
2014-7-12,91.7,80.5,72.1,78.0,74.0,70.0,94,81,59,30.14,30.04,5,0,7,0.00
2014-7-13,91.9,80.0,70.2,78.0,74.1,68.0,95,83,61,30.09,29.96,1,0,7,0.00
2014-7-14,92.9,81.2,71.1,78.0,74.1,69.0,94,80,59,30.02,29.89,4,0,10,0.00
2014-7-15,81.3,77.1,73.9,76.0,73.7,71.0,92,89,83,29.98,29.89,3,0,4,0.00
2014-7-16,73.6,73.6,73.6,71.0,71.0,71.0,92,92,92,29.97,29.97,0,0,0,0.00
2014-7-17,81.5,73.7,63.9,72.0,67.7,61.0,94,81,64,30.02,29.90,5,0,7,0.58
2014-7-18,78.3,73.7,69.4,76.0,71.6,67.0,95,93,89,29.98,29.86,5,0,12,0.01
2014-7-19,73.8,70.6,68.1,70.0,68.2,66.0,94,91,88,30.03,29.96,0,0,4,0.01
2014-7-20,83.3,73.0,69.3,74.0,70.2,68.0,95,90,72,30.03,29.97,1,0,6,0.00
2014-7-21,78.7,74.5,71.3,73.0,71.1,69.0,92,89,83,30.01,29.98,0,0,0,0.00
2014-7-22,88.5,77.3,65.9,76.0,71.5,64.0,95,83,62,30.06,29.98,1,0,5,0.00
2014-7-23,87.6,78.0,70.4,79.0,73.5,69.0,95,86,68,30.06,29.93,7,0,8,0.37
2014-7-24,86.2,77.2,69.6,77.0,73.0,68.0,95,87,71,30.02,29.92,1,0,5,0.00
2014-7-25,90.5,80.9,72.4,79.0,75.0,71.0,95,83,61,30.03,29.94,2,0,5,0.00
2014-7-26,90.5,82.0,73.6,79.0,75.7,72.0,95,82,64,30.06,29.96,7,0,9,0.00
2014-7-27,88.5,79.7,77.6,79.0,74.5,75.0,90,80,72,30.02,29.98,0,0,5,0.00
2014-7-28,89.7,80.0,76.5,82.0,76.1,74.0,94,88,71,30.08,29.98,2,0,7,0.04
2014-7-29,86.7,77.6,69.1,74.0,70.6,67.0,94,80,55,30.10,30.00,5,0,5,0.00
2014-7-30,85.3,75.5,64.4,71.0,66.5,62.0,93,75,50,30.09,29.99,3,0,5,0.00
2014-7-31,77.5,73.2,69.2,73.0,68.8,65.0,89,85,79,30.03,29.93,2,0,5,0.00
2014-8-1,79.5,73.2,68.5,77.0,70.9,67.0,95,92,85,29.97,29.91,3,0,7,2.14
2014-8-2,79.6,75.0,72.2,75.0,72.3,69.0,95,91,85,30.00,29.94,2,0,7,0.00
2014-8-3,82.1,75.3,72.1,79.0,73.2,70.0,95,93,83,30.02,29.97,1,0,6,0.92
2014-8-4,86.1,77.3,72.6,79.0,74.6,71.0,95,91,77,30.02,29.95,0,0,5,0.04
2014-8-5,89.2,79.0,69.5,78.0,73.8,68.0,95,85,67,30.07,29.99,1,0,5,0.00
2014-8-6,89.0,79.9,72.4,80.0,75.5,71.0,95,86,69,30.05,29.93,0,0,8,0.00
2014-8-7,83.8,76.5,73.9,79.0,74.3,72.0,95,93,83,30.00,29.95,1,0,7,0.00
2014-8-10,86.3,78.1,74.1,80.0,74.2,72.0,93,88,82,30.00,29.97,3,0,7,0.00
2014-8-11,91.8,80.7,73.6,82.0,76.0,72.0,95,86,68,30.02,29.92,4,0,10,0.00
2014-9-4,87.6,79.1,76.7,78.0,74.0,75.0,93,81,69,30.04,29.99,0,0,6,0.00
2014-9-5,88.6,78.9,72.7,79.0,74.5,71.0,95,87,69,30.11,30.00,1,0,6,0.00
2014-9-6,89.4,78.7,72.0,78.0,74.4,70.0,95,87,67,30.06,29.95,3,0,6,0.00
2014-9-7,80.2,75.7,72.2,75.0,73.0,70.0,94,91,84,30.04,29.93,1,0,4,0.01
2014-9-8,88.6,78.2,69.9,78.0,73.8,68.0,95,87,68,30.02,29.93,1,0,5,0.00
2014-9-9,91.3,80.5,72.0,79.0,75.3,70.0,95,85,65,30.00,29.87,2,0,7,0.00
2014-9-10,79.4,75.9,73.0,77.0,73.6,71.0,94,92,90,29.91,29.88,4,0,11,0.00
2014-9-12,85.1,79.3,70.9,78.0,75.1,69.0,94,87,79,30.08,29.93,1,0,6,0.34
2014-9-13,70.3,65.7,63.0,69.0,64.1,61.0,95,94,94,30.14,30.04,5,1,8,0.00
2014-9-14,74.0,70.7,66.4,69.0,66.7,64.0,92,87,81,30.18,30.09,2,0,6,0.00
2014-9-15,86.3,75.3,65.1,77.0,71.1,63.0,95,87,71,30.12,30.03,1,0,6,0.00
2014-9-16,88.4,78.6,71.8,78.0,73.3,69.0,93,84,66,30.09,29.94,3,0,7,0.00
2014-9-17,85.0,76.1,69.2,76.0,72.0,67.0,95,87,72,29.99,29.87,1,0,4,0.00
2014-9-18,83.3,76.4,71.4,77.0,73.0,70.0,95,89,77,29.93,29.84,1,0,5,0.00
2014-9-19,86.3,77.1,69.1,75.0,71.7,67.0,94,84,65,29.97,29.88,5,0,8,0.00
2014-9-20,88.2,76.6,66.0,75.0,70.5,64.0,95,83,60,30.02,29.92,1,0,7,0.00
2014-9-21,88.7,76.5,66.1,76.0,70.4,64.0,95,83,59,30.06,29.95,4,0,6,0.00
2014-9-22,83.2,73.1,63.9,70.0,63.8,56.0,94,75,50,30.11,30.01,5,0,9,0.00
2014-9-23,81.3,66.3,55.0,62.0,57.3,52.0,92,75,48,30.16,30.06,3,0,7,0.00
2014-9-24,83.4,67.5,55.3,67.0,59.4,53.0,92,77,49,30.17,30.09,5,0,11,0.00
2014-9-25,84.5,70.8,60.5,68.0,63.3,58.0,94,79,50,30.19,30.09,4,0,7,0.00
2014-9-26,84.5,70.8,60.0,68.0,63.7,58.0,94,80,55,30.12,30.00,4,0,6,0.00
2014-9-27,82.6,71.0,61.8,70.0,64.6,60.0,94,81,60,30.06,29.96,5,0,7,0.00
2014-9-28,81.3,73.0,66.9,73.0,68.9,64.0,93,87,75,30.04,29.93,1,0,5,0.01
2014-9-29,81.0,75.0,70.4,75.0,71.6,69.0,95,89,80,29.96,29.87,2,0,5,0.01
2014-9-30,87.3,76.0,66.7,75.0,70.8,65.0,95,84,66,29.91,29.79,2,0,6,0.00
2014-10-1,87.7,78.1,72.3,76.0,73.4,70.0,94,86,67,29.90,29.79,6,0,10,0.00
2014-10-2,88.0,79.3,76.7,79.0,75.9,75.0,94,89,71,29.93,29.86,9,0,14,0.04
2014-10-8,73.1,70.8,69.4,70.0,68.1,67.0,92,91,89,30.03,30.02,0,0,1,0.00
2014-10-9,86.8,75.3,66.1,76.0,70.6,64.0,95,86,65,30.06,29.92,5,0,8,0.00
2014-10-10,87.7,77.1,72.2,76.0,73.0,70.0,94,88,67,30.00,29.90,4,0,11,0.50
2014-10-11,79.3,73.3,71.3,74.0,71.4,70.0,95,94,78,30.02,29.93,1,0,8,0.00
2014-10-19,54.5,53.1,52.1,52.0,50.7,50.0,91,90,90,30.08,30.07,0,0,0,0.00
2014-10-20,74.7,59.3,46.0,60.0,52.6,44.0,94,81,52,30.10,30.01,5,0,5,0.00
2014-10-21,78.3,63.4,51.4,66.0,58.1,50.0,94,84,63,30.11,30.00,2,0,5,0.00
2014-10-22,77.2,63.0,52.3,61.0,55.8,49.0,94,79,49,30.14,30.04,2,0,8,0.00
2014-10-23,66.1,55.2,47.6,55.0,50.2,45.0,92,84,61,30.17,30.08,2,0,4,0.00
2014-10-24,72.5,56.4,43.0,58.0,49.6,41.0,94,80,50,30.18,30.09,2,0,6,0.00
2014-10-25,81.0,60.6,45.0,64.0,53.9,43.0,94,81,47,30.18,30.07,2,0,5,0.00
2014-10-26,73.5,56.9,52.8,64.0,54.1,51.0,94,90,73,30.09,30.03,1,0,5,0.00
2014-10-30,51.6,50.1,49.4,49.0,47.4,47.0,91,90,89,30.09,30.07,0,0,0,0.00
2014-10-31,69.7,55.8,43.0,54.0,47.8,41.0,94,77,53,30.16,30.05,6,0,10,0.00
2014-11-2,63.5,49.6,30.8,47.0,39.4,28.0,92,71,40,30.46,30.30,6,0,8,0.00
2014-11-3,72.8,56.1,38.0,57.0,47.8,36.0,93,76,50,30.34,30.22,7,0,11,0.00
2014-11-4,78.6,66.5,57.0,66.0,60.0,54.0,89,80,63,30.21,30.07,8,1,20,0.00
2014-11-5,71.6,67.8,65.0,68.0,64.2,61.0,93,88,83,30.15,30.08,5,0,9,0.01
2014-11-9,61.1,50.5,44.9,54.0,47.1,43.0,91,88,76,29.99,29.98,0,0,2,0.00
2014-11-10,75.0,59.7,42.2,61.0,53.1,40.0,94,80,55,29.98,29.82,14,1,18,0.00
2014-11-11,72.8,61.0,48.2,67.0,56.9,44.0,92,86,79,30.13,29.84,5,0,12,0.04
2014-11-12,51.7,45.0,38.8,43.0,38.3,33.0,84,78,63,30.32,30.12,5,1,9,0.00
2014-11-13,44.9,38.8,34.4,33.0,28.1,21.0,81,66,51,30.45,30.31,7,1,10,0.00
2014-11-14,45.2,36.1,25.4,27.0,23.4,19.0,87,62,37,30.47,30.32,4,0,9,0.00
2014-11-15,49.9,41.3,32.0,38.0,28.9,23.0,76,62,46,30.35,30.06,2,0,7,0.00
2014-11-16,53.0,47.1,40.5,50.0,44.2,38.0,94,90,63,30.07,29.86,5,0,9,2.08
2014-11-17,47.2,38.2,28.7,39.0,31.3,24.0,94,78,48,30.43,30.03,9,1,10,0.00
2014-11-18,46.8,31.8,25.8,25.0,22.5,19.0,88,72,39,30.56,30.43,4,0,6,0.00
2014-11-22,64.3,63.5,62.5,60.0,59.2,59.0,91,86,83,29.91,29.78,5,1,13,0.04
2014-11-23,63.8,63.1,62.1,62.0,61.3,60.0,95,93,92,29.77,29.47,6,2,20,1.04
2014-12-8,61.0,46.7,36.5,47.0,40.0,34.0,91,77,57,30.30,30.24,1,0,5,0.00
2014-12-9,68.3,46.3,31.4,49.0,39.2,29.0,94,79,40,30.34,30.22,5,0,7,0.00
2014-12-10,52.9,42.8,33.4,42.0,37.5,31.0,92,82,62,30.34,30.21,5,0,5,0.00
2014-12-11,53.0,46.6,38.3,46.0,41.8,36.0,92,84,69,30.32,30.22,2,0,7,0.00
2014-12-12,63.6,49.7,46.5,51.0,45.5,43.0,90,86,63,30.37,30.27,2,0,5,0.00
2014-12-18,52.6,50.9,50.4,50.0,48.4,48.0,93,91,89,30.16,30.11,1,0,5,0.00
2014-12-19,51.1,48.8,46.4,50.0,47.1,45.0,94,94,92,30.16,30.07,6,1,10,0.18
2014-12-20,54.2,45.6,35.3,46.0,42.7,33.0,95,90,73,30.25,30.15,5,1,9,0.00
2014-12-21,50.8,35.6,32.2,48.0,33.9,30.0,95,93,89,30.20,30.13,2,0,6,0.00
2014-12-29,45.0,44.2,43.4,43.0,42.5,42.0,93,93,93,30.24,30.21,0,0,0,0.00
2014-12-30,46.6,40.6,34.0,42.0,37.0,31.0,93,87,71,30.48,30.24,0,0,0,0.00
2015-1-1,42.7,40.8,40.2,41.0,39.4,39.0,95,95,94,30.20,30.13,2,0,7,0.20
2015-1-2,58.8,47.9,42.7,58.0,46.8,41.0,97,96,95,30.18,29.91,4,0,11,0.00